createdAt,value
2023-04-17T00:02:03.105Z,25.60
2023-04-17T00:04:26.756Z,27.50
2023-04-17T00:07:02.932Z,25.00
2023-04-17T00:09:34.194Z,30.20
2023-04-17T00:12:16.602Z,27.70
2023-04-17T00:14:48.015Z,25.90
2023-04-17T00:17:11.624Z,26.70
2023-04-17T00:19:47.062Z,28.20
2023-04-17T00:22:23.804Z,25.80
2023-04-17T00:24:47.524Z,29.20
2023-04-17T00:27:11.111Z,26.20
2023-04-17T00:29:44.995Z,25.50
2023-04-17T00:32:28.659Z,25.80
2023-04-17T00:35:02.372Z,29.00
2023-04-17T00:37:31.229Z,27.30
2023-04-17T00:39:59.435Z,28.50
2023-04-17T00:42:44.550Z,27.30
2023-04-17T00:45:17.129Z,27.90
2023-04-17T00:47:43.822Z,24.50
2023-04-17T00:50:11.053Z,26.20
2023-04-17T00:52:46.212Z,24.10
2023-04-17T00:55:32.120Z,26.20
2023-04-17T00:58:16.117Z,26.20
2023-04-17T01:00:42.075Z,27.40
2023-04-17T01:03:29.126Z,24.90
2023-04-17T01:06:13.088Z,25.60
2023-04-17T01:08:42.398Z,26.70
2023-04-17T01:11:06.328Z,23.70
2023-04-17T01:13:29.827Z,27.60
2023-04-17T01:16:14.838Z,25.90
2023-04-17T01:18:58.640Z,26.60
2023-04-17T01:21:25.224Z,24.90
2023-04-17T01:23:52.313Z,27.10
2023-04-17T01:26:30.838Z,26.80
2023-04-17T01:28:59.341Z,26.00
2023-04-17T01:31:37.222Z,24.20
2023-04-17T01:34:14.509Z,26.20
2023-04-17T01:36:58.559Z,25.70
2023-04-17T01:39:37.272Z,27.80
2023-04-17T01:42:05.698Z,28.20
2023-04-17T01:44:49.713Z,25.70
2023-04-17T01:47:13.891Z,25.90
2023-04-17T01:49:41.241Z,25.90
2023-04-17T01:52:08.117Z,26.00
2023-04-17T01:54:32.284Z,23.90
2023-04-17T01:56:56.423Z,25.60
2023-04-17T01:59:19.808Z,28.20
2023-04-17T02:01:43.320Z,25.10
2023-04-17T02:04:07.183Z,24.60
2023-04-17T02:06:51.329Z,26.10
2023-04-17T02:09:18.238Z,29.50
2023-04-17T02:11:48.966Z,24.80
2023-04-17T02:14:23.397Z,27.30
2023-04-17T02:16:49.547Z,29.00
2023-04-17T02:19:16.093Z,26.30
2023-04-17T02:21:59.836Z,28.00
2023-04-17T02:24:23.340Z,25.90
2023-04-17T02:26:49.565Z,25.60
2023-04-17T02:29:33.738Z,26.60
2023-04-17T02:32:05.235Z,26.90
2023-04-17T02:34:38.600Z,27.30
2023-04-17T02:37:07.525Z,25.30
2023-04-17T02:39:40.949Z,25.00
2023-04-17T02:42:07.206Z,25.40
2023-04-17T02:44:35.489Z,27.30
2023-04-17T02:47:02.087Z,28.60
2023-04-17T02:49:33.092Z,23.90
2023-04-17T02:52:04.956Z,28.50
2023-04-17T02:54:39.607Z,30.30
2023-04-17T02:57:03.725Z,29.70
2023-04-17T02:59:27.352Z,27.20
2023-04-17T03:01:51.035Z,25.90
2023-04-17T03:04:17.133Z,28.90
2023-04-17T03:06:41.417Z,27.50
2023-04-17T03:11:37.232Z,26.60
2023-04-17T03:14:01.024Z,29.00
2023-04-17T03:16:44.837Z,28.80
2023-04-17T03:19:28.660Z,27.20
2023-04-17T03:21:54.584Z,28.60
2023-04-17T03:24:33.275Z,27.10
2023-04-17T03:27:09.321Z,30.00
2023-04-17T03:29:37.688Z,30.50
2023-04-17T03:32:21.340Z,28.40
2023-04-17T03:35:06.689Z,29.50
2023-04-17T03:37:31.403Z,27.90
2023-04-17T03:39:58.797Z,28.50
2023-04-17T03:42:28.189Z,26.50
2023-04-17T03:44:54.789Z,30.20
2023-04-17T03:47:25.827Z,26.00
2023-04-17T03:49:52.938Z,27.70
2023-04-17T03:52:19.687Z,27.20
2023-04-17T03:54:59.255Z,28.80
2023-04-17T03:57:43.267Z,25.70
2023-04-17T04:00:18.530Z,27.60
2023-04-17T04:02:42.007Z,28.00
2023-04-17T04:05:09.663Z,27.80
2023-04-17T04:07:41.080Z,26.30
2023-04-17T04:10:10.894Z,26.90
2023-04-17T04:12:55.392Z,26.60
2023-04-17T04:15:21.904Z,26.70
2023-04-17T04:17:49.377Z,24.50
2023-04-17T04:20:16.448Z,26.50
2023-04-17T04:22:44.253Z,26.30
2023-04-17T04:25:28.459Z,26.30
2023-04-17T04:28:06.114Z,26.50
2023-04-17T04:30:50.653Z,26.50
2023-04-17T04:33:31.116Z,28.00
2023-04-17T04:35:56.316Z,28.40
2023-04-17T04:38:30.381Z,26.70
2023-04-17T04:41:05.635Z,23.90
2023-04-17T04:43:33.457Z,26.80
2023-04-17T04:46:00.417Z,27.40
2023-04-17T04:48:28.561Z,26.50
2023-04-17T04:50:52.087Z,26.10
2023-04-17T04:53:18.605Z,25.10
2023-04-17T04:55:48.407Z,26.40
2023-04-17T04:58:25.363Z,23.70
2023-04-17T05:00:49.573Z,25.70
2023-04-17T05:03:40.072Z,26.00
2023-04-17T05:06:10.614Z,26.00
2023-04-17T05:08:37.325Z,25.60
2023-04-17T05:11:07.313Z,25.60
2023-04-17T05:13:33.900Z,28.70
2023-04-17T05:16:01.649Z,23.70
2023-04-17T05:18:25.877Z,29.00
2023-04-17T05:20:49.355Z,26.30
2023-04-17T05:23:13.291Z,25.30
2023-04-17T05:25:37.735Z,28.80
2023-04-17T05:28:04.879Z,25.60
2023-04-17T05:30:28.861Z,25.80
2023-04-17T05:33:04.619Z,24.50
2023-04-17T05:35:39.089Z,25.60
2023-04-17T05:38:10.279Z,24.60
2023-04-17T05:40:36.821Z,26.60
2023-04-17T05:43:07.854Z,28.00
2023-04-17T05:45:41.358Z,21.80
2023-04-17T05:48:06.399Z,24.80
2023-04-17T05:50:30.349Z,27.90
2023-04-17T05:52:54.447Z,27.30
2023-04-17T05:55:19.739Z,23.40
2023-04-17T05:57:50.153Z,27.90
2023-04-17T06:00:24.162Z,23.60
2023-04-17T06:02:50.513Z,20.60
2023-04-17T06:05:21.347Z,20.50
2023-04-17T06:07:45.638Z,20.10
2023-04-17T06:10:11.629Z,20.40
2023-04-17T06:12:55.576Z,21.30
2023-04-17T06:15:23.346Z,23.00
2023-04-17T06:18:01.296Z,22.00
2023-04-17T06:20:28.417Z,21.50
2023-04-17T06:23:12.679Z,21.50
2023-04-17T06:25:39.288Z,19.10
2023-04-17T06:28:23.634Z,21.30
2023-04-17T06:30:49.065Z,19.60
2023-04-17T06:33:12.605Z,23.50
2023-04-17T06:35:37.180Z,21.60
2023-04-17T06:38:09.488Z,19.90
2023-04-17T06:40:33.756Z,19.80
2023-04-17T06:43:02.621Z,20.10
2023-04-17T06:45:26.208Z,20.70
2023-04-17T06:47:49.912Z,23.00
2023-04-17T06:50:14.080Z,20.80
2023-04-17T06:52:37.632Z,18.70
2023-04-17T06:55:01.740Z,20.80
2023-04-17T06:59:53.752Z,21.60
2023-04-17T07:02:17.461Z,19.00
2023-04-17T07:04:44.254Z,18.20
2023-04-17T07:07:07.928Z,19.10
2023-04-17T07:09:31.292Z,17.90
2023-04-17T07:11:55.292Z,18.60
2023-04-17T07:14:18.786Z,20.20
2023-04-17T07:16:42.515Z,18.70
2023-04-17T07:19:06.224Z,19.70
2023-04-17T07:21:29.988Z,18.70
2023-04-17T07:23:53.446Z,19.90
2023-04-17T07:26:17.184Z,20.80
2023-04-17T07:28:40.842Z,22.00
2023-04-17T07:31:11.835Z,25.00
2023-04-17T07:33:37.418Z,29.10
2023-04-17T07:36:03.242Z,21.00
2023-04-17T07:38:26.659Z,24.60
2023-04-17T07:40:50.670Z,21.20
2023-04-17T07:43:14.710Z,22.10
2023-04-17T07:45:40.476Z,20.20
2023-04-17T07:48:05.785Z,24.00
2023-04-17T07:50:29.731Z,22.20
2023-04-17T07:52:53.258Z,19.90
2023-04-17T07:55:17.075Z,20.20
2023-04-17T07:57:42.093Z,20.80
2023-04-17T08:00:09.871Z,18.70
2023-04-17T08:02:43.082Z,20.90
2023-04-17T08:05:10.593Z,17.50
2023-04-17T08:07:34.130Z,16.20
2023-04-17T08:09:58.126Z,18.90
2023-04-17T08:12:21.468Z,21.20
2023-04-17T08:14:44.957Z,18.30
2023-04-17T08:17:08.411Z,14.50
2023-04-17T08:19:31.893Z,15.70
2023-04-17T08:22:03.292Z,16.50
2023-04-17T08:24:26.872Z,15.20
2023-04-17T08:26:50.811Z,16.40
2023-04-17T08:29:14.633Z,19.40
2023-04-17T08:31:39.727Z,14.20
2023-04-17T08:34:13.735Z,16.10
2023-04-17T08:36:39.436Z,15.80
2023-04-17T08:39:04.165Z,24.80
2023-04-17T08:41:36.756Z,25.50
2023-04-17T08:44:03.105Z,16.60
2023-04-17T08:46:27.127Z,15.00
2023-04-17T08:48:52.223Z,14.80
2023-04-17T08:51:16.845Z,15.10
2023-04-17T08:53:40.524Z,19.50
2023-04-17T08:56:08.918Z,15.70
2023-04-17T08:58:34.204Z,17.30
2023-04-17T09:01:09.126Z,18.20
2023-04-17T09:03:41.082Z,20.90
2023-04-17T09:06:05.091Z,16.90
2023-04-17T09:08:28.934Z,20.30
2023-04-17T09:10:59.790Z,15.30
2023-04-17T09:13:24.796Z,18.90
2023-04-17T09:16:07.416Z,19.40
2023-04-17T09:18:32.318Z,15.70
2023-04-17T09:20:56.926Z,13.40
2023-04-17T09:23:22.186Z,15.10
2023-04-17T09:25:46.089Z,14.90
2023-04-17T09:28:15.575Z,18.50
2023-04-17T09:30:40.420Z,13.90
2023-04-17T09:33:05.065Z,13.60
2023-04-17T09:35:28.842Z,15.70
2023-04-17T09:37:53.601Z,13.60
2023-04-17T09:40:18.500Z,15.00
2023-04-17T09:42:56.453Z,15.80
2023-04-17T09:45:21.774Z,16.90
2023-04-17T09:47:47.892Z,15.30
2023-04-17T09:52:36.259Z,16.70
2023-04-17T09:55:06.239Z,13.80
2023-04-17T09:57:29.786Z,16.70
2023-04-17T09:59:58.995Z,16.00
2023-04-17T10:02:26.121Z,13.30
2023-04-17T10:04:49.843Z,15.80
2023-04-17T10:07:15.627Z,17.40
2023-04-17T10:09:41.207Z,17.20
2023-04-17T10:12:06.049Z,12.00
2023-04-17T10:14:32.880Z,15.70
2023-04-17T10:16:56.819Z,13.60
2023-04-17T10:19:31.167Z,13.70
2023-04-17T10:22:32.357Z,15.20
2023-04-17T10:25:17.907Z,18.80
2023-04-17T10:27:47.010Z,17.70
2023-04-17T10:30:12.547Z,15.30
2023-04-17T10:32:36.536Z,14.30
2023-04-17T10:35:02.944Z,14.60
2023-04-17T10:37:58.675Z,15.60
2023-04-17T10:40:23.989Z,13.80
2023-04-17T10:43:03.195Z,17.00
2023-04-17T10:45:46.784Z,17.70
2023-04-17T10:48:20.942Z,14.60
2023-04-17T10:50:44.732Z,13.30
2023-04-17T10:53:28.348Z,15.90
2023-04-17T10:55:51.785Z,16.00
2023-04-17T10:58:15.386Z,14.20
2023-04-17T11:00:49.901Z,12.70
2023-04-17T11:03:16.456Z,13.30
2023-04-17T11:05:45.223Z,14.60
2023-04-17T11:08:11.043Z,14.00
2023-04-17T11:10:36.884Z,15.00
2023-04-17T11:13:01.594Z,14.50
2023-04-17T11:15:29.768Z,15.10
2023-04-17T11:17:54.573Z,14.50
2023-04-17T11:20:21.858Z,13.80
2023-04-17T11:22:45.752Z,14.80
2023-04-17T11:25:20.783Z,12.50
2023-04-17T11:27:44.442Z,14.70
2023-04-17T11:30:10.213Z,11.80
2023-04-17T11:32:37.022Z,14.50
2023-04-17T11:35:01.028Z,13.20
2023-04-17T11:37:25.590Z,15.30
2023-04-17T11:39:49.257Z,11.50
2023-04-17T11:42:12.630Z,18.20
2023-04-17T11:44:36.536Z,16.30
2023-04-17T11:47:01.537Z,15.20
2023-04-17T11:49:25.871Z,12.50
2023-04-17T11:51:49.708Z,13.00
2023-04-17T11:54:24.522Z,13.00
2023-04-17T11:57:00.761Z,13.60
2023-04-17T11:59:31.514Z,10.90
2023-04-17T12:01:54.894Z,10.40
2023-04-17T12:04:21.118Z,10.40
2023-04-17T12:06:45.346Z,10.10
2023-04-17T12:09:20.176Z,11.30
2023-04-17T12:11:43.684Z,12.60
2023-04-17T12:14:11.681Z,13.00
2023-04-17T12:16:35.551Z,9.80
2023-04-17T12:19:01.557Z,13.00
2023-04-17T12:21:27.636Z,11.90
2023-04-17T12:23:51.237Z,11.50
2023-04-17T12:26:15.211Z,14.00
2023-04-17T12:28:58.920Z,10.90
2023-04-17T12:31:22.589Z,11.80
2023-04-17T12:33:46.759Z,13.80
2023-04-17T12:36:10.581Z,10.80
2023-04-17T12:38:34.392Z,15.70
2023-04-17T12:40:57.829Z,14.10
2023-04-17T12:43:21.748Z,11.50
2023-04-17T12:45:45.793Z,10.50
2023-04-17T12:48:09.492Z,12.90
2023-04-17T12:50:33.132Z,11.60
2023-04-17T12:52:56.597Z,9.70
2023-04-17T12:55:20.830Z,8.70
2023-04-17T12:57:47.534Z,10.10
2023-04-17T13:00:12.775Z,10.80
2023-04-17T13:02:36.703Z,11.30
2023-04-17T13:05:00.860Z,12.60
2023-04-17T13:07:24.671Z,10.90
2023-04-17T13:09:48.410Z,17.40
2023-04-17T13:12:12.537Z,10.70
2023-04-17T13:14:43.457Z,10.10
2023-04-17T13:17:07.215Z,13.10
2023-04-17T13:19:32.416Z,15.60
2023-04-17T13:21:56.136Z,10.10
2023-04-17T13:24:19.872Z,10.90
2023-04-17T13:27:04.622Z,10.60
2023-04-17T13:29:31.324Z,9.70
2023-04-17T13:31:54.845Z,13.40
2023-04-17T13:34:19.622Z,11.70
2023-04-17T13:36:44.296Z,8.20
2023-04-17T13:39:08.877Z,12.70
2023-04-17T13:41:32.758Z,11.90
2023-04-17T13:43:56.665Z,9.60
2023-04-17T13:46:20.557Z,9.60
2023-04-17T13:48:46.207Z,9.90
2023-04-17T13:51:09.827Z,9.80
2023-04-17T13:53:33.596Z,8.40
2023-04-17T13:55:57.506Z,7.00
2023-04-17T13:58:20.948Z,8.20
2023-04-17T14:00:44.637Z,8.40
2023-04-17T14:03:08.193Z,7.90
2023-04-17T14:05:32.303Z,7.50
2023-04-17T14:08:03.936Z,9.30
2023-04-17T14:10:27.607Z,8.40
2023-04-17T14:12:54.434Z,8.30
2023-04-17T14:15:18.151Z,7.20
2023-04-17T14:17:42.540Z,8.30
2023-04-17T14:20:11.472Z,8.00
2023-04-17T14:22:44.343Z,10.70
2023-04-17T14:25:09.207Z,9.10
2023-04-17T14:27:35.073Z,8.00
2023-04-17T14:30:05.689Z,9.60
2023-04-17T14:32:31.904Z,8.80
2023-04-17T14:34:55.623Z,8.00
2023-04-17T14:37:19.571Z,8.20
2023-04-17T14:39:46.313Z,10.20
2023-04-17T14:42:10.195Z,9.30
2023-04-17T14:44:33.658Z,7.40
2023-04-17T14:46:57.333Z,11.80
2023-04-17T14:49:20.914Z,10.00
2023-04-17T14:51:44.423Z,9.10
2023-04-17T14:54:08.623Z,12.60
2023-04-17T14:56:32.249Z,10.30
2023-04-17T14:58:55.741Z,9.80
2023-04-17T15:01:19.200Z,12.10
2023-04-17T15:03:45.522Z,12.30
2023-04-17T15:06:11.743Z,11.10
2023-04-17T15:08:35.160Z,10.80
2023-04-17T15:10:58.842Z,8.50
2023-04-17T15:13:22.379Z,9.90
2023-04-17T15:15:45.809Z,11.70
2023-04-17T15:18:09.687Z,10.30
2023-04-17T15:20:35.170Z,10.00
2023-04-17T15:22:59.751Z,9.90
2023-04-17T15:25:24.204Z,9.30
2023-04-17T15:27:49.948Z,8.60
2023-04-17T15:30:15.261Z,9.90
2023-04-17T15:32:38.693Z,10.20
2023-04-17T15:35:02.296Z,9.90
2023-04-17T15:37:25.643Z,10.30
2023-04-17T15:39:49.046Z,11.80
2023-04-17T15:42:12.455Z,9.90
2023-04-17T15:44:36.918Z,9.80
2023-04-17T15:47:00.470Z,11.10
2023-04-17T15:49:24.600Z,9.20
2023-04-17T15:51:48.125Z,7.60
2023-04-17T15:54:11.555Z,11.60
2023-04-17T15:56:35.156Z,11.00
2023-04-17T15:58:58.482Z,12.40
2023-04-17T16:01:21.904Z,9.10
2023-04-17T16:03:45.700Z,9.90
2023-04-17T16:06:10.540Z,9.70
2023-04-17T16:08:34.170Z,11.50
2023-04-17T16:10:59.133Z,8.00
2023-04-17T16:13:22.537Z,11.20
2023-04-17T16:15:46.053Z,9.30
2023-04-17T16:18:11.162Z,8.30
2023-04-17T16:20:35.318Z,9.30
2023-04-17T16:22:58.816Z,11.30
2023-04-17T16:25:22.359Z,12.50
2023-04-17T16:27:45.871Z,9.50
2023-04-17T16:30:10.761Z,23.40
2023-04-17T16:32:34.193Z,10.40
2023-04-17T16:34:57.683Z,12.40
2023-04-17T16:37:21.039Z,11.10
2023-04-17T16:39:44.558Z,10.50
2023-04-17T16:42:08.375Z,8.60
2023-04-17T16:44:31.786Z,10.30
2023-04-17T16:49:22.460Z,12.60
2023-04-17T16:51:45.893Z,8.80
2023-04-17T16:54:09.352Z,9.40
2023-04-17T16:56:35.899Z,12.20
2023-04-17T16:58:59.409Z,12.80
2023-04-17T17:01:23.180Z,10.60
2023-04-17T17:03:46.692Z,11.00
2023-04-17T17:06:10.150Z,11.60
2023-04-17T17:08:33.744Z,10.10
2023-04-17T17:10:59.661Z,9.90
2023-04-17T17:13:23.050Z,9.50
2023-04-17T17:15:47.080Z,8.40
2023-04-17T17:18:10.548Z,10.80
2023-04-17T17:20:34.022Z,10.60
2023-04-17T17:22:57.432Z,11.10
2023-04-17T17:25:20.829Z,7.70
2023-04-17T17:27:44.259Z,9.70
2023-04-17T17:30:09.836Z,7.90
2023-04-17T17:32:33.407Z,10.30
2023-04-17T17:34:57.634Z,9.40
2023-04-17T17:37:21.337Z,9.70
2023-04-17T17:39:44.860Z,8.60
2023-04-17T17:42:08.951Z,10.70
2023-04-17T17:44:32.437Z,9.30
2023-04-17T17:46:55.827Z,11.30
2023-04-17T17:49:19.165Z,9.50
2023-04-17T17:51:43.769Z,10.10
2023-04-17T17:54:07.621Z,10.50
2023-04-17T17:56:31.128Z,10.10
2023-04-17T17:58:54.769Z,9.50
2023-04-17T18:01:18.193Z,14.00
2023-04-17T18:03:41.756Z,11.40
2023-04-17T18:06:05.567Z,14.70
2023-04-17T18:08:29.493Z,9.80
2023-04-17T18:10:53.007Z,12.10
2023-04-17T18:13:16.700Z,21.70
2023-04-17T18:15:40.122Z,18.00
2023-04-17T18:18:03.776Z,19.00
2023-04-17T18:20:27.221Z,23.70
2023-04-17T18:22:51.349Z,14.20
2023-04-17T18:25:14.751Z,13.60
2023-04-17T18:27:38.184Z,10.30
2023-04-17T18:30:01.832Z,9.40
2023-04-17T18:32:25.566Z,11.30
2023-04-17T18:34:50.217Z,10.60
2023-04-17T18:37:14.664Z,11.70
2023-04-17T18:39:59.340Z,12.00
2023-04-17T18:42:22.726Z,11.20
2023-04-17T18:44:46.281Z,10.80
2023-04-17T18:47:09.700Z,11.70
2023-04-17T18:49:35.498Z,11.30
2023-04-17T18:51:59.069Z,12.40
2023-04-17T18:54:23.613Z,17.10
2023-04-17T18:56:47.047Z,14.20
2023-04-17T18:59:11.218Z,11.90
2023-04-17T19:01:37.423Z,12.40
2023-04-17T19:04:01.988Z,12.30
2023-04-17T19:06:26.166Z,11.30
2023-04-17T19:08:49.702Z,11.40
2023-04-17T19:11:13.107Z,12.20
2023-04-17T19:13:44.386Z,11.80
2023-04-17T19:16:07.806Z,11.10
2023-04-17T19:18:31.270Z,12.40
2023-04-17T19:20:54.986Z,15.90
2023-04-17T19:23:21.050Z,15.70
2023-04-17T19:25:44.449Z,12.30
2023-04-17T19:28:07.886Z,17.70
2023-04-17T19:30:31.479Z,15.10
2023-04-17T19:32:55.052Z,11.90
2023-04-17T19:35:19.003Z,14.30
2023-04-17T19:37:45.824Z,13.30
2023-04-17T19:40:21.231Z,14.50
2023-04-17T19:42:47.499Z,14.20
2023-04-17T19:45:12.324Z,13.70
2023-04-17T19:47:36.533Z,15.20
2023-04-17T19:50:00.019Z,15.50
2023-04-17T19:52:24.022Z,17.30
2023-04-17T19:54:50.333Z,13.10
2023-04-17T19:57:22.976Z,14.50
2023-04-17T19:59:46.374Z,16.30
2023-04-17T20:02:11.273Z,13.70
2023-04-17T20:04:34.884Z,15.40
2023-04-17T20:06:58.278Z,16.30
2023-04-17T20:09:21.857Z,16.80
2023-04-17T20:11:45.649Z,19.80
2023-04-17T20:14:09.116Z,16.40
2023-04-17T20:16:32.533Z,17.40
2023-04-17T20:18:56.365Z,16.80
2023-04-17T20:21:20.011Z,18.20
2023-04-17T20:23:43.574Z,17.80
2023-04-17T20:26:10.562Z,19.50
2023-04-17T20:28:33.933Z,14.80
2023-04-17T20:30:57.647Z,17.30
2023-04-17T20:33:21.244Z,17.10
2023-04-17T20:35:45.015Z,17.30
2023-04-17T20:38:08.666Z,17.60
2023-04-17T20:40:35.433Z,16.60
2023-04-17T20:42:58.877Z,17.40
2023-04-17T20:45:22.676Z,17.30
2023-04-17T20:47:56.581Z,17.90
2023-04-17T20:50:21.041Z,17.00
2023-04-17T20:52:44.448Z,17.70
2023-04-17T20:55:09.022Z,19.60
2023-04-17T20:57:32.533Z,20.20
2023-04-17T20:59:56.154Z,20.30
2023-04-17T21:02:21.115Z,20.20
2023-04-17T21:04:44.922Z,18.40
2023-04-17T21:07:11.266Z,18.70
2023-04-17T21:09:35.296Z,21.30
2023-04-17T21:12:19.190Z,18.60
2023-04-17T21:14:51.399Z,22.10
2023-04-17T21:17:14.883Z,18.90
2023-04-17T21:19:41.701Z,22.10
2023-04-17T21:22:05.154Z,18.10
2023-04-17T21:24:31.093Z,20.80
2023-04-17T21:27:04.502Z,19.20
2023-04-17T21:29:29.203Z,19.20
2023-04-17T21:31:52.604Z,23.20
2023-04-17T21:34:16.208Z,21.40
2023-04-17T21:36:39.861Z,21.50
2023-04-17T21:39:06.694Z,20.80
2023-04-17T21:41:31.193Z,18.30
2023-04-17T21:43:54.608Z,21.20
2023-04-17T21:46:25.692Z,24.30
2023-04-17T21:48:49.267Z,22.70
2023-04-17T21:51:13.475Z,21.20
2023-04-17T21:53:49.762Z,19.50
2023-04-17T21:56:13.338Z,22.10
2023-04-17T21:58:37.085Z,22.30
2023-04-17T22:01:00.691Z,28.70
2023-04-17T22:03:24.327Z,25.40
2023-04-17T22:05:49.774Z,22.10
2023-04-17T22:08:16.890Z,22.80
2023-04-17T22:10:43.858Z,22.60
2023-04-17T22:13:07.465Z,22.40
2023-04-17T22:15:38.615Z,24.10
2023-04-17T22:18:02.341Z,22.20
2023-04-17T22:21:20.188Z,21.90
2023-04-17T22:24:56.520Z,23.40
2023-04-17T22:28:32.722Z,24.10
2023-04-17T22:32:09.530Z,27.50
2023-04-17T22:35:46.433Z,22.90
2023-04-17T22:39:23.090Z,25.20
2023-04-17T22:42:59.154Z,26.80
2023-04-17T22:46:35.527Z,28.30
2023-04-17T22:50:12.178Z,27.70
2023-04-17T22:53:48.618Z,24.90
2023-04-17T22:57:24.953Z,26.50
2023-04-17T23:01:01.360Z,25.70
2023-04-17T23:04:37.858Z,30.40
2023-04-17T23:08:14.438Z,26.00
2023-04-17T23:11:00.568Z,27.50
2023-04-17T23:13:25.025Z,28.00
2023-04-17T23:15:48.458Z,24.70
2023-04-17T23:18:11.903Z,28.90
2023-04-17T23:20:35.496Z,27.10
2023-04-17T23:22:58.912Z,31.10
2023-04-17T23:25:22.582Z,27.70
2023-04-17T23:27:46.100Z,28.80
2023-04-17T23:30:11.111Z,31.10
2023-04-17T23:32:34.714Z,31.40
2023-04-17T23:35:00.562Z,29.10
2023-04-17T23:37:24.228Z,31.80
2023-04-17T23:39:48.141Z,29.70
2023-04-17T23:42:11.561Z,34.90
2023-04-17T23:44:35.155Z,30.10
2023-04-17T23:46:59.294Z,30.00
2023-04-17T23:49:22.720Z,29.20
2023-04-17T23:51:46.173Z,26.70
2023-04-17T23:54:09.835Z,24.20
2023-04-17T23:56:33.240Z,28.20
2023-04-17T23:58:56.739Z,31.80
